首页
METAR-TAF:

METAR-TAF

机场 :

厦门, 中华人民共和国

厦门高崎国际机场

纬度: 24-29N, 经度: 118-05E, 海拔: 139米

当前天气观测

该预报发布于44分钟前的05:00 UTC
风速12节,风向
温度 18°C
湿度 77%
气压 1019 hPa
能見度: 8000
多云层高于2600英尺

METAR: ZSAM 250500Z 10006MPS 8000 BKN026 18/14 Q1019 NOSIG

时间: 13:44 (05:44 UTC)

预报

该预报发布于2小时和41分钟前的03:03 UTC
预报有效从25日的 06点(UTC)到 26日的 06点(UTC)
风速8节,风向东转东南,有时为17节阵风
能見度: 5000
多云层高于3300英尺
轻雾
成为
从 25日的 08点(UTC)到 25日的 09点(UTC)
风速12节,风向东北,有时为23节阵风
短暂存在
从 25日的 08点(UTC)到 25日的 12点(UTC)
能見度: 3000
多云层高于1000英尺
阴天层高于3000英尺
小雨, 轻雾

TAF: ZSAM 250303Z 2506/2606 11004G09MPS 5000 BR BKN033 TX20/2506Z TN13/2521Z BECMG 2508/2509 05006G12MPS TEMPO 2508/2512 3000 -RA BR BKN010 OVC030

超过4000个机场的气象观测和天气预报(METAR&TAF报告)。

可查询的气象台以黄色和红色小点在地图上表示。

将鼠标移到小点上方,可查看气象台名称。

然后点击查看天气观测和预报。

如需切换地图:点击带黑十字的绿色按钮放大地图;点击带横线的绿色按钮缩小地图;或者点击绿色箭头查看邻近地区的地图。


METAR-TAF: